createdAt,value
2023-02-12T00:00:07.235Z,1.20
2023-02-12T00:02:34.043Z,1.22
2023-02-12T00:05:00.517Z,1.20
2023-02-12T00:07:31.241Z,1.21
2023-02-12T00:09:57.669Z,1.10
2023-02-12T00:12:24.060Z,1.03
2023-02-12T00:14:50.452Z,0.95
2023-02-12T00:17:16.825Z,1.03
2023-02-12T00:19:43.202Z,1.11
2023-02-12T00:22:09.599Z,1.26
2023-02-12T00:24:35.997Z,1.30
2023-02-12T00:27:02.391Z,1.25
2023-02-12T00:29:28.950Z,1.27
2023-02-12T00:31:55.557Z,1.15
2023-02-12T00:34:21.996Z,0.98
2023-02-12T00:36:48.464Z,0.77
2023-02-12T00:39:14.868Z,0.90
2023-02-12T00:41:41.249Z,1.10
2023-02-12T00:44:07.639Z,1.11
2023-02-12T00:46:34.083Z,1.06
2023-02-12T00:49:00.507Z,0.87
2023-02-12T00:51:26.975Z,0.92
2023-02-12T00:53:53.501Z,0.88
2023-02-12T00:56:19.952Z,0.99
2023-02-12T00:58:46.350Z,1.08
2023-02-12T01:01:12.874Z,1.13
2023-02-12T01:03:39.338Z,1.10
2023-02-12T01:06:06.359Z,1.13
2023-02-12T01:08:32.929Z,1.15
2023-02-12T01:11:02.020Z,0.98
2023-02-12T01:13:30.491Z,0.90
2023-02-12T01:16:08.897Z,0.70
2023-02-12T01:18:37.321Z,0.70
2023-02-12T01:21:13.205Z,0.67
2023-02-12T01:23:40.417Z,0.72
2023-02-12T01:26:07.520Z,0.81
2023-02-12T01:28:33.965Z,0.79
2023-02-12T01:31:00.470Z,0.89
2023-02-12T01:33:26.956Z,0.96
2023-02-12T01:35:53.634Z,0.88
2023-02-12T01:38:20.240Z,0.89
2023-02-12T01:40:46.729Z,0.84
2023-02-12T01:43:13.187Z,0.81
2023-02-12T01:45:50.496Z,0.71
2023-02-12T01:48:18.510Z,0.63
2023-02-12T01:50:47.958Z,0.51
2023-02-12T01:53:20.072Z,0.46
2023-02-12T01:55:48.906Z,0.59
2023-02-12T01:58:16.998Z,0.66
2023-02-12T02:00:43.692Z,0.62
2023-02-12T02:03:10.224Z,0.74
2023-02-12T02:05:45.617Z,0.72
2023-02-12T02:08:13.423Z,0.76
2023-02-12T02:10:39.861Z,0.71
2023-02-12T02:13:25.069Z,0.68
2023-02-12T02:15:57.480Z,0.61
2023-02-12T02:18:32.058Z,0.55
2023-02-12T02:21:23.358Z,0.43
2023-02-12T02:24:18.747Z,0.18
2023-02-12T02:27:10.149Z,-0.03
2023-02-12T02:29:51.671Z,0.03
2023-02-12T02:32:28.596Z,0.07
2023-02-12T02:34:54.914Z,0.11
2023-02-12T02:37:31.414Z,0.10
2023-02-12T02:40:16.129Z,-0.07
2023-02-12T02:42:57.783Z,0.04
2023-02-12T02:45:44.889Z,0.34
2023-02-12T02:48:18.157Z,0.23
2023-02-12T02:50:49.834Z,-0.02
2023-02-12T02:53:26.576Z,0.10
2023-02-12T02:55:56.945Z,0.05
2023-02-12T02:58:28.672Z,0.21
2023-02-12T03:01:00.944Z,0.26
2023-02-12T03:03:34.224Z,0.13
2023-02-12T03:06:26.690Z,0.15
2023-02-12T03:09:00.633Z,0.30
2023-02-12T03:11:30.312Z,0.54
2023-02-12T03:14:07.957Z,0.56
2023-02-12T03:16:39.687Z,0.53
2023-02-12T03:19:16.280Z,0.63
2023-02-12T03:21:58.562Z,0.61
2023-02-12T03:24:44.259Z,0.56
2023-02-12T03:28:02.858Z,0.56
2023-02-12T03:30:57.135Z,0.61
2023-02-12T03:33:52.663Z,0.48
2023-02-12T03:36:53.128Z,0.41
2023-02-12T03:39:31.334Z,0.28
2023-02-12T03:42:16.146Z,0.19
2023-02-12T03:44:54.685Z,0.16
2023-02-12T03:47:31.289Z,0.17
2023-02-12T03:50:28.285Z,0.20
2023-02-12T03:52:55.306Z,0.22
2023-02-12T03:55:21.893Z,0.29
2023-02-12T03:57:56.143Z,0.26
2023-02-12T04:00:24.759Z,0.15
2023-02-12T04:02:52.534Z,0.09
2023-02-12T04:05:22.316Z,-0.02
2023-02-12T04:07:50.681Z,0.02
2023-02-12T04:10:18.762Z,0.02
2023-02-12T04:13:06.004Z,-0.04
2023-02-12T04:16:05.573Z,-0.08
2023-02-12T04:18:42.953Z,-0.19
2023-02-12T04:21:34.402Z,-0.25
2023-02-12T04:24:44.580Z,-0.34
2023-02-12T04:27:19.422Z,-0.31
2023-02-12T04:30:06.751Z,-0.20
2023-02-12T04:32:41.635Z,-0.28
2023-02-12T04:35:08.364Z,-0.29
2023-02-12T04:37:34.701Z,-0.18
2023-02-12T04:40:06.097Z,-0.09
2023-02-12T04:42:41.798Z,-0.15
2023-02-12T04:45:11.727Z,-0.17
2023-02-12T04:47:38.829Z,-0.20
2023-02-12T04:50:06.014Z,-0.13
2023-02-12T04:52:32.492Z,-0.18
2023-02-12T04:54:58.917Z,-0.31
2023-02-12T04:57:25.635Z,-0.29
2023-02-12T04:59:52.074Z,-0.32
2023-02-12T05:02:18.551Z,-0.33
2023-02-12T05:04:44.976Z,-0.32
2023-02-12T05:07:12.174Z,-0.44
2023-02-12T05:09:38.597Z,-0.38
2023-02-12T05:12:05.141Z,-0.42
2023-02-12T05:14:31.697Z,-0.45
2023-02-12T05:16:58.119Z,-0.53
2023-02-12T05:19:30.814Z,-0.41
2023-02-12T05:21:57.649Z,-0.53
2023-02-12T05:24:24.451Z,-0.48
2023-02-12T05:26:51.686Z,-0.46
2023-02-12T05:29:18.820Z,-0.48
2023-02-12T05:31:46.093Z,-0.39
2023-02-12T05:34:13.020Z,-0.32
2023-02-12T05:36:43.396Z,-0.31
2023-02-12T05:39:17.091Z,-0.37
2023-02-12T05:41:43.575Z,-0.37
2023-02-12T05:44:12.021Z,-0.33
2023-02-12T05:46:39.392Z,-0.40
2023-02-12T05:49:05.989Z,-0.46
2023-02-12T05:51:33.357Z,-0.58
2023-02-12T05:54:03.690Z,-0.57
2023-02-12T05:56:38.245Z,-0.40
2023-02-12T05:59:08.830Z,-0.49
2023-02-12T06:01:38.902Z,-0.56
2023-02-12T06:04:07.883Z,-0.54
2023-02-12T06:06:35.222Z,-0.58
2023-02-12T06:09:01.905Z,-0.65
2023-02-12T06:11:28.678Z,-0.70
2023-02-12T06:13:55.096Z,-0.87
2023-02-12T06:16:27.679Z,-0.77
2023-02-12T06:18:56.233Z,-0.62
2023-02-12T06:21:24.688Z,-0.54
2023-02-12T06:23:52.197Z,-0.68
2023-02-12T06:26:19.440Z,-0.72
2023-02-12T06:28:46.046Z,-0.72
2023-02-12T06:31:21.600Z,-0.79
2023-02-12T06:33:48.401Z,-0.91
2023-02-12T06:36:15.406Z,-0.92
2023-02-12T06:38:42.179Z,-0.96
2023-02-12T06:41:08.688Z,-0.93
2023-02-12T06:43:35.741Z,-0.81
2023-02-12T06:46:04.043Z,-0.72
2023-02-12T06:48:31.055Z,-0.61
2023-02-12T06:51:04.170Z,-0.51
2023-02-12T06:53:30.561Z,-0.39
2023-02-12T06:55:57.278Z,-0.30
2023-02-12T06:58:23.861Z,-0.27
2023-02-12T07:00:50.326Z,-0.25
2023-02-12T07:03:16.789Z,-0.23
2023-02-12T07:05:43.206Z,-0.24
2023-02-12T07:08:09.783Z,-0.20
2023-02-12T07:10:36.189Z,-0.09
2023-02-12T07:13:04.742Z,-0.03
2023-02-12T07:15:31.619Z,-0.01
2023-02-12T07:17:58.042Z,0.08
2023-02-12T07:20:24.440Z,0.09
2023-02-12T07:22:50.878Z,0.17
2023-02-12T07:25:17.473Z,0.38
2023-02-12T07:27:44.082Z,0.50
2023-02-12T07:30:10.874Z,0.49
2023-02-12T07:32:37.282Z,0.52
2023-02-12T07:35:03.832Z,0.60
2023-02-12T07:37:30.281Z,0.79
2023-02-12T07:39:56.681Z,0.97
2023-02-12T07:42:23.276Z,1.12
2023-02-12T07:44:50.385Z,1.20
2023-02-12T07:47:17.179Z,1.23
2023-02-12T07:49:43.706Z,1.32
2023-02-12T07:52:13.219Z,1.35
2023-02-12T07:54:39.858Z,1.43
2023-02-12T07:57:06.317Z,1.58
2023-02-12T07:59:32.789Z,1.57
2023-02-12T08:02:00.856Z,1.60
2023-02-12T08:04:27.452Z,1.69
2023-02-12T08:06:55.710Z,1.77
2023-02-12T08:09:25.316Z,1.67
2023-02-12T08:11:52.014Z,1.70
2023-02-12T08:14:20.877Z,1.84
2023-02-12T08:16:48.958Z,1.95
2023-02-12T08:19:21.633Z,1.99
2023-02-12T08:21:51.266Z,2.02
2023-02-12T08:24:18.113Z,2.17
2023-02-12T08:26:45.065Z,2.21
2023-02-12T08:29:15.021Z,2.27
2023-02-12T08:31:44.082Z,2.35
2023-02-12T08:34:23.489Z,2.39
2023-02-12T08:36:51.837Z,2.48
2023-02-12T08:39:18.918Z,2.58
2023-02-12T08:41:46.576Z,2.65
2023-02-12T08:44:13.698Z,2.69
2023-02-12T08:46:44.368Z,2.75
2023-02-12T08:49:16.744Z,2.81
2023-02-12T08:51:48.522Z,2.85
2023-02-12T08:54:17.539Z,2.92
2023-02-12T08:56:45.334Z,3.04
2023-02-12T08:59:14.178Z,3.06
2023-02-12T09:01:44.755Z,3.13
2023-02-12T09:04:17.941Z,3.25
2023-02-12T09:06:45.812Z,3.32
2023-02-12T09:09:15.356Z,3.47
2023-02-12T09:11:42.179Z,3.58
2023-02-12T09:14:12.295Z,3.69
2023-02-12T09:16:40.337Z,3.79
2023-02-12T09:19:08.211Z,3.90
2023-02-12T09:21:35.160Z,4.02
2023-02-12T09:24:03.568Z,4.09
2023-02-12T09:26:31.023Z,4.16
2023-02-12T09:28:57.834Z,4.24
2023-02-12T09:31:27.135Z,4.30
2023-02-12T09:34:05.126Z,4.43
2023-02-12T09:36:32.744Z,4.52
2023-02-12T09:39:08.459Z,4.59
2023-02-12T09:41:55.117Z,4.73
2023-02-12T09:44:39.876Z,4.85
2023-02-12T09:47:24.076Z,5.01
2023-02-12T09:50:27.450Z,5.20
2023-02-12T09:52:56.956Z,5.31
2023-02-12T09:55:30.408Z,5.39
2023-02-12T09:57:57.075Z,5.51
2023-02-12T10:00:31.994Z,5.62
2023-02-12T10:03:05.532Z,5.76
2023-02-12T10:05:39.501Z,5.91
2023-02-12T10:08:32.036Z,6.05
2023-02-12T10:11:20.383Z,6.13
2023-02-12T10:14:05.669Z,6.33
2023-02-12T10:16:32.070Z,6.53
2023-02-12T10:19:04.441Z,6.56
2023-02-12T10:21:44.026Z,6.66
2023-02-12T10:24:30.053Z,6.79
2023-02-12T10:27:02.505Z,6.84
2023-02-12T10:29:38.216Z,7.00
2023-02-12T10:32:11.822Z,7.22
2023-02-12T10:34:41.359Z,7.28
2023-02-12T10:37:16.895Z,7.31
2023-02-12T10:39:49.541Z,7.48
2023-02-12T10:42:26.733Z,7.55
2023-02-12T10:44:53.171Z,7.66
2023-02-12T10:47:24.078Z,7.72
2023-02-12T10:50:02.121Z,8.03
2023-02-12T10:52:45.029Z,8.12
2023-02-12T10:55:28.054Z,8.11
2023-02-12T10:57:55.761Z,8.24
2023-02-12T11:00:43.541Z,8.40
2023-02-12T11:03:13.093Z,8.45
2023-02-12T11:05:42.926Z,8.59
2023-02-12T11:08:38.751Z,8.65
2023-02-12T11:11:19.647Z,8.80
2023-02-12T11:14:17.486Z,8.98
2023-02-12T11:16:52.060Z,9.05
2023-02-12T11:19:27.715Z,9.27
2023-02-12T11:22:07.851Z,9.39
2023-02-12T11:24:36.962Z,9.41
2023-02-12T11:27:12.683Z,9.55
2023-02-12T11:29:43.208Z,9.64
2023-02-12T11:32:17.488Z,9.71
2023-02-12T11:34:43.974Z,9.73
2023-02-12T11:37:19.922Z,9.86
2023-02-12T11:39:48.781Z,10.03
2023-02-12T11:42:23.209Z,9.87
2023-02-12T11:44:59.284Z,9.82
2023-02-12T11:47:31.813Z,9.96
2023-02-12T11:50:33.236Z,10.04
2023-02-12T11:53:04.603Z,10.12
2023-02-12T11:55:35.225Z,10.05
2023-02-12T11:58:15.390Z,10.22
2023-02-12T12:00:52.179Z,10.35
2023-02-12T12:03:28.755Z,10.52
2023-02-12T12:06:17.085Z,10.54
2023-02-12T12:08:48.304Z,10.50
2023-02-12T12:11:25.053Z,10.49
2023-02-12T12:14:03.748Z,10.61
2023-02-12T12:17:06.368Z,10.57
2023-02-12T12:19:54.786Z,10.68
2023-02-12T12:22:31.152Z,10.58
2023-02-12T12:25:09.961Z,10.45
2023-02-12T12:28:02.081Z,10.46
2023-02-12T12:30:37.832Z,10.40
2023-02-12T12:33:13.131Z,10.51
2023-02-12T12:35:50.497Z,10.49
2023-02-12T12:38:52.922Z,10.49
2023-02-12T12:41:48.047Z,10.65
2023-02-12T12:44:35.349Z,10.65
2023-02-12T12:47:32.459Z,10.72
2023-02-12T12:50:10.994Z,10.92
2023-02-12T12:52:40.437Z,10.97
2023-02-12T12:55:44.253Z,10.87
2023-02-12T12:58:19.799Z,11.04
2023-02-12T13:01:26.223Z,11.07
2023-02-12T13:04:22.542Z,10.98
2023-02-12T13:07:07.914Z,11.09
2023-02-12T13:09:46.485Z,11.14
2023-02-12T13:12:33.860Z,11.19
2023-02-12T13:15:38.964Z,11.51
2023-02-12T13:18:20.398Z,11.70
2023-02-12T13:20:56.296Z,11.62
2023-02-12T13:23:51.119Z,11.75
2023-02-12T13:26:37.490Z,11.72
2023-02-12T13:29:16.567Z,11.79
2023-02-12T13:31:50.138Z,11.83
2023-02-12T13:34:18.625Z,11.85
2023-02-12T13:36:46.115Z,11.91
2023-02-12T13:39:12.556Z,11.93
2023-02-12T13:41:45.524Z,11.91
2023-02-12T13:44:37.630Z,11.91
2023-02-12T13:47:22.794Z,12.14
2023-02-12T13:49:52.057Z,12.09
2023-02-12T13:52:40.642Z,12.07
2023-02-12T13:55:28.538Z,12.11
2023-02-12T13:58:32.221Z,12.13
2023-02-12T14:01:02.653Z,12.05
2023-02-12T14:03:31.058Z,12.05
2023-02-12T14:06:17.888Z,12.19
2023-02-12T14:08:48.361Z,12.25
2023-02-12T14:11:19.336Z,12.17
2023-02-12T14:13:52.609Z,12.30
2023-02-12T14:16:40.601Z,12.38
2023-02-12T14:19:44.461Z,12.31
2023-02-12T14:22:32.797Z,12.31
2023-02-12T14:25:02.444Z,12.23
2023-02-12T14:27:28.987Z,12.23
2023-02-12T14:30:01.174Z,12.21
2023-02-12T14:32:58.208Z,12.26
2023-02-12T14:35:36.815Z,12.14
2023-02-12T14:38:47.785Z,12.13
2023-02-12T14:41:38.948Z,12.27
2023-02-12T14:44:17.769Z,12.24
2023-02-12T14:46:51.861Z,12.19
2023-02-12T14:49:44.398Z,12.12
2023-02-12T14:52:13.747Z,12.05
2023-02-12T14:54:42.498Z,12.05
2023-02-12T14:57:21.887Z,12.05
2023-02-12T14:59:49.929Z,11.96
2023-02-12T15:02:26.842Z,11.82
2023-02-12T15:04:58.294Z,11.81
2023-02-12T15:07:33.069Z,11.74
2023-02-12T15:10:10.177Z,11.78
2023-02-12T15:12:46.089Z,11.75
2023-02-12T15:15:12.764Z,11.72
2023-02-12T15:17:41.962Z,11.68
2023-02-12T15:20:21.016Z,11.62
2023-02-12T15:22:47.481Z,11.52
2023-02-12T15:25:25.765Z,11.57
2023-02-12T15:28:00.571Z,11.49
2023-02-12T15:30:30.446Z,11.38
2023-02-12T15:32:59.637Z,11.37
2023-02-12T15:35:32.818Z,11.25
2023-02-12T15:38:01.207Z,11.17
2023-02-12T15:40:29.641Z,11.06
2023-02-12T15:43:04.480Z,11.03
2023-02-12T15:45:36.062Z,10.97
2023-02-12T15:48:13.083Z,10.92
2023-02-12T15:51:14.204Z,10.79
2023-02-12T15:53:41.823Z,10.70
2023-02-12T15:56:18.718Z,10.57
2023-02-12T15:58:57.568Z,10.45
2023-02-12T16:01:30.375Z,10.40
2023-02-12T16:03:59.115Z,10.42
2023-02-12T16:06:28.006Z,10.42
2023-02-12T16:08:59.323Z,10.35
2023-02-12T16:11:27.182Z,10.24
2023-02-12T16:14:00.948Z,10.19
2023-02-12T16:16:40.671Z,10.14
2023-02-12T16:19:18.415Z,10.08
2023-02-12T16:21:48.184Z,9.99
2023-02-12T16:24:37.484Z,9.86
2023-02-12T16:30:48.192Z,9.64
2023-02-12T16:33:34.174Z,9.53
2023-02-12T16:36:07.579Z,9.45
2023-02-12T16:38:40.254Z,9.41
2023-02-12T16:41:18.759Z,9.29
2023-02-12T16:43:46.074Z,9.24
2023-02-12T16:46:13.802Z,9.12
2023-02-12T16:48:43.337Z,9.03
2023-02-12T16:51:26.384Z,8.92
2023-02-12T16:53:57.398Z,8.82
2023-02-12T16:56:36.081Z,8.79
2023-02-12T16:59:02.825Z,8.72
2023-02-12T17:01:33.345Z,8.70
2023-02-12T17:04:02.309Z,8.70
2023-02-12T17:06:31.154Z,8.65
2023-02-12T17:08:58.307Z,8.58
2023-02-12T17:11:26.408Z,8.51
2023-02-12T17:13:54.688Z,8.42
2023-02-12T17:16:31.092Z,8.34
2023-02-12T17:18:58.945Z,8.25
2023-02-12T17:21:31.581Z,8.24
2023-02-12T17:23:58.399Z,8.14
2023-02-12T17:26:25.431Z,8.06
2023-02-12T17:28:51.928Z,8.04
2023-02-12T17:31:20.558Z,8.01
2023-02-12T17:33:47.075Z,7.99
2023-02-12T17:36:13.560Z,7.96
2023-02-12T17:38:39.985Z,7.90
2023-02-12T17:41:10.894Z,7.83
2023-02-12T17:43:37.432Z,7.73
2023-02-12T17:46:18.490Z,7.69
2023-02-12T17:48:45.049Z,7.64
2023-02-12T17:51:13.327Z,7.56
2023-02-12T17:53:40.838Z,7.50
2023-02-12T17:56:16.463Z,7.50
2023-02-12T17:58:43.927Z,7.42
2023-02-12T18:01:13.375Z,7.33
2023-02-12T18:03:39.885Z,7.32
2023-02-12T18:06:07.329Z,7.23
2023-02-12T18:08:34.054Z,7.18
2023-02-12T18:11:06.167Z,7.07
2023-02-12T18:13:32.912Z,6.97
2023-02-12T18:15:59.389Z,6.89
2023-02-12T18:18:25.879Z,6.85
2023-02-12T18:20:52.432Z,6.80
2023-02-12T18:23:19.100Z,6.74
2023-02-12T18:25:45.531Z,6.68
2023-02-12T18:28:12.760Z,6.57
2023-02-12T18:30:42.719Z,6.51
2023-02-12T18:33:11.149Z,6.41
2023-02-12T18:35:37.617Z,6.39
2023-02-12T18:38:04.078Z,6.39
2023-02-12T18:40:30.585Z,6.34
2023-02-12T18:42:57.032Z,6.29
2023-02-12T18:45:23.716Z,6.14
2023-02-12T18:47:50.144Z,6.03
2023-02-12T18:50:16.824Z,6.08
2023-02-12T18:52:43.221Z,6.00
2023-02-12T18:55:09.656Z,5.95
2023-02-12T18:57:36.109Z,5.91
2023-02-12T19:00:04.339Z,5.81
2023-02-12T19:02:30.851Z,5.77
2023-02-12T19:04:57.359Z,5.75
2023-02-12T19:07:23.855Z,5.63
2023-02-12T19:09:50.697Z,5.53
2023-02-12T19:12:17.175Z,5.48
2023-02-12T19:14:43.635Z,5.54
2023-02-12T19:17:10.104Z,5.59
2023-02-12T19:19:36.681Z,5.60
2023-02-12T19:22:03.178Z,5.56
2023-02-12T19:24:44.383Z,5.52
2023-02-12T19:27:12.514Z,5.50
2023-02-12T19:29:38.943Z,5.50
2023-02-12T19:32:05.479Z,5.52
2023-02-12T19:34:32.048Z,5.58
2023-02-12T19:36:58.540Z,5.62
2023-02-12T19:39:25.175Z,5.53
2023-02-12T19:41:52.093Z,5.55
2023-02-12T19:44:23.214Z,5.52
2023-02-12T19:46:50.074Z,5.61
2023-02-12T19:49:19.322Z,5.61
2023-02-12T19:51:46.501Z,5.65
2023-02-12T19:54:15.078Z,5.71
2023-02-12T19:56:42.160Z,5.84
2023-02-12T19:59:08.940Z,5.99
2023-02-12T20:01:35.630Z,6.05
2023-02-12T20:04:03.326Z,6.05
2023-02-12T20:06:33.557Z,6.07
2023-02-12T20:09:00.194Z,6.04
2023-02-12T20:11:31.640Z,6.04
2023-02-12T20:13:58.322Z,6.10
2023-02-12T20:16:31.251Z,6.08
2023-02-12T20:19:04.408Z,6.05
2023-02-12T20:21:30.992Z,5.92
2023-02-12T20:23:58.490Z,5.90
2023-02-12T20:26:25.786Z,5.89
2023-02-12T20:28:52.506Z,5.95
2023-02-12T20:31:22.399Z,5.83
2023-02-12T20:33:53.063Z,5.76
2023-02-12T20:36:19.485Z,5.75
2023-02-12T20:38:50.110Z,5.76
2023-02-12T20:41:16.572Z,5.65
2023-02-12T20:43:42.965Z,5.64
2023-02-12T20:46:14.535Z,5.59
2023-02-12T20:48:42.073Z,5.61
2023-02-12T20:51:11.580Z,5.56
2023-02-12T20:53:38.766Z,5.49
2023-02-12T20:56:08.057Z,5.46
2023-02-12T20:58:34.564Z,5.48
2023-02-12T21:01:09.358Z,5.47
2023-02-12T21:03:36.639Z,5.49
2023-02-12T21:06:03.995Z,5.46
2023-02-12T21:08:31.542Z,5.40
2023-02-12T21:11:14.457Z,5.35
2023-02-12T21:13:58.567Z,5.35
2023-02-12T21:16:32.140Z,5.34
2023-02-12T21:18:58.805Z,5.36
2023-02-12T21:21:30.394Z,5.34
2023-02-12T21:23:57.773Z,5.32
2023-02-12T21:26:26.453Z,5.30
2023-02-12T21:28:55.069Z,5.27
2023-02-12T21:31:42.512Z,5.20
2023-02-12T21:34:13.302Z,5.21
2023-02-12T21:36:41.979Z,5.24
2023-02-12T21:39:11.550Z,5.29
2023-02-12T21:41:39.692Z,5.30
2023-02-12T21:44:11.910Z,5.25
2023-02-12T21:46:38.651Z,5.10
2023-02-12T21:49:05.288Z,5.10
2023-02-12T21:51:34.446Z,5.16
2023-02-12T21:54:03.703Z,5.23
2023-02-12T21:56:30.649Z,5.22
2023-02-12T21:59:05.010Z,5.18
2023-02-12T22:01:34.563Z,5.14
2023-02-12T22:04:02.764Z,5.15
2023-02-12T22:06:29.612Z,5.17
2023-02-12T22:09:01.123Z,5.20
2023-02-12T22:11:27.890Z,5.26
2023-02-12T22:13:57.309Z,5.26
2023-02-12T22:16:26.050Z,5.22
2023-02-12T22:18:59.372Z,5.15
2023-02-12T22:21:29.886Z,5.14
2023-02-12T22:23:57.276Z,5.21
2023-02-12T22:26:26.745Z,5.21
2023-02-12T22:28:59.321Z,5.24
2023-02-12T22:31:31.407Z,5.23
2023-02-12T22:34:00.957Z,5.18
2023-02-12T22:36:29.445Z,5.17
2023-02-12T22:38:59.291Z,5.19
2023-02-12T22:41:26.435Z,5.17
2023-02-12T22:43:52.857Z,5.14
2023-02-12T22:46:19.746Z,5.13
2023-02-12T22:48:46.763Z,5.11
2023-02-12T22:51:26.737Z,4.95
2023-02-12T22:53:54.631Z,4.82
2023-02-12T22:56:21.561Z,4.73
2023-02-12T22:58:48.587Z,4.67
2023-02-12T23:01:18.046Z,4.62
2023-02-12T23:03:45.904Z,4.51
2023-02-12T23:06:15.662Z,4.52
2023-02-12T23:08:43.072Z,4.50
2023-02-12T23:11:10.726Z,4.53
2023-02-12T23:13:37.498Z,4.49
2023-02-12T23:16:04.500Z,4.44
2023-02-12T23:18:31.848Z,4.43
2023-02-12T23:20:58.692Z,4.38
2023-02-12T23:23:25.483Z,4.26
2023-02-12T23:25:53.870Z,4.12
2023-02-12T23:28:21.408Z,4.08
2023-02-12T23:30:49.261Z,4.06
2023-02-12T23:33:15.980Z,4.07
2023-02-12T23:35:42.697Z,3.98
2023-02-12T23:38:09.087Z,3.93
2023-02-12T23:40:35.518Z,3.93
2023-02-12T23:43:02.007Z,3.95
2023-02-12T23:45:28.719Z,3.81
2023-02-12T23:47:55.188Z,3.76
2023-02-12T23:50:22.041Z,3.66
2023-02-12T23:52:48.482Z,3.52
2023-02-12T23:55:15.369Z,3.45
2023-02-12T23:57:41.857Z,3.37
